createdAt,value
2022-09-09T00:01:23.560Z,1014.40
2022-09-09T00:06:30.814Z,1014.40
2022-09-09T00:11:38.091Z,1014.33
2022-09-09T00:16:45.415Z,1014.34
2022-09-09T00:21:52.651Z,1014.39
2022-09-09T00:26:59.921Z,1014.32
2022-09-09T00:32:07.147Z,1014.27
2022-09-09T00:37:14.351Z,1014.21
2022-09-09T00:42:21.576Z,1014.18
2022-09-09T00:47:28.860Z,1014.43
2022-09-09T00:52:36.062Z,1014.25
2022-09-09T00:57:43.360Z,1014.31
2022-09-09T01:02:50.736Z,1014.31
2022-09-09T01:07:58.513Z,1014.19
2022-09-09T01:13:05.238Z,1014.24
2022-09-09T01:18:12.508Z,1014.18
2022-09-09T01:23:19.732Z,1014.10
2022-09-09T01:28:27.235Z,1014.13
2022-09-09T01:33:34.462Z,1014.06
2022-09-09T01:38:41.963Z,1014.05
2022-09-09T01:43:49.206Z,1014.03
2022-09-09T01:48:56.393Z,1014.09
2022-09-09T01:54:03.676Z,1014.03
2022-09-09T01:59:10.898Z,1014.11
2022-09-09T02:04:18.164Z,1014.03
2022-09-09T02:09:25.330Z,1013.99
2022-09-09T02:14:32.512Z,1013.97
2022-09-09T02:19:39.730Z,1014.07
2022-09-09T02:24:46.968Z,1014.16
2022-09-09T02:29:54.157Z,1014.16
2022-09-09T02:35:01.370Z,1014.16
2022-09-09T02:40:08.616Z,1014.15
2022-09-09T02:45:15.672Z,1014.12
2022-09-09T02:50:22.936Z,1014.18
2022-09-09T02:55:30.093Z,1014.16
2022-09-09T03:00:37.276Z,1014.14
2022-09-09T03:05:44.471Z,1014.18
2022-09-09T03:10:51.658Z,1014.24
2022-09-09T03:15:58.825Z,1014.22
2022-09-09T03:21:06.040Z,1014.20
2022-09-09T03:26:13.286Z,1014.24
2022-09-09T03:31:20.621Z,1014.25
2022-09-09T03:36:27.717Z,1014.28
2022-09-09T03:41:34.874Z,1014.34
2022-09-09T03:46:42.151Z,1014.36
2022-09-09T03:51:49.351Z,1014.33
2022-09-09T03:56:56.515Z,1014.27
2022-09-09T04:02:03.796Z,1014.25
2022-09-09T04:07:10.936Z,1014.33
2022-09-09T04:12:18.178Z,1014.37
2022-09-09T04:17:25.353Z,1014.37
2022-09-09T04:22:32.606Z,1014.42
2022-09-09T04:27:39.817Z,1014.45
2022-09-09T04:32:47.012Z,1014.50
2022-09-09T04:37:54.206Z,1014.43
2022-09-09T04:43:01.382Z,1014.53
2022-09-09T04:48:08.556Z,1014.54
2022-09-09T04:53:15.769Z,1014.51
2022-09-09T04:58:22.925Z,1014.43
2022-09-09T05:03:30.111Z,1014.47
2022-09-09T05:08:37.506Z,1014.55
2022-09-09T05:13:44.474Z,1014.56
2022-09-09T05:18:51.666Z,1014.66
2022-09-09T05:23:58.942Z,1014.70
2022-09-09T05:29:06.140Z,1014.73
2022-09-09T05:34:13.322Z,1014.81
2022-09-09T05:39:20.563Z,1014.84
2022-09-09T05:44:27.797Z,1014.86
2022-09-09T05:49:34.977Z,1014.89
2022-09-09T05:54:42.197Z,1014.92
2022-09-09T05:59:49.333Z,1014.88
2022-09-09T06:04:59.969Z,1014.91
2022-09-09T06:10:03.733Z,1014.86
2022-09-09T06:15:10.897Z,1014.88
2022-09-09T06:20:18.088Z,1014.86
2022-09-09T06:25:25.716Z,1014.93
2022-09-09T06:30:32.857Z,1014.91
2022-09-09T06:35:40.044Z,1014.90
2022-09-09T06:40:47.323Z,1014.89
2022-09-09T06:45:54.515Z,1014.93
2022-09-09T06:51:01.693Z,1014.90
2022-09-09T06:56:08.926Z,1014.89
2022-09-09T07:01:16.222Z,1014.88
2022-09-09T07:06:23.359Z,1014.89
2022-09-09T07:11:30.572Z,1014.94
2022-09-09T07:16:37.742Z,1014.98
2022-09-09T07:21:44.977Z,1014.97
2022-09-09T07:26:52.205Z,1015.02
2022-09-09T07:31:59.401Z,1015.04
2022-09-09T07:37:06.586Z,1015.06
2022-09-09T07:42:13.836Z,1015.05
2022-09-09T07:47:21.024Z,1015.04
2022-09-09T07:52:28.303Z,1015.01
2022-09-09T07:57:35.446Z,1015.06
2022-09-09T08:02:42.637Z,1015.17
2022-09-09T08:07:49.775Z,1015.24
2022-09-09T08:13:16.965Z,1015.30
2022-09-09T08:18:04.571Z,1015.43
2022-09-09T08:23:11.768Z,1015.50
2022-09-09T08:28:19.031Z,1015.66
2022-09-09T08:33:26.217Z,1015.60
2022-09-09T08:38:33.385Z,1015.69
2022-09-09T08:43:40.594Z,1015.77
2022-09-09T08:48:47.773Z,1015.82
2022-09-09T08:53:59.554Z,1015.93
2022-09-09T08:59:02.259Z,1015.90
2022-09-09T09:04:09.691Z,1015.87
2022-09-09T09:09:16.728Z,1015.84
2022-09-09T09:14:24.006Z,1015.80
2022-09-09T09:19:31.120Z,1015.83
2022-09-09T09:24:38.344Z,1015.85
2022-09-09T09:30:03.776Z,1015.86
2022-09-09T09:34:52.747Z,1015.89
2022-09-09T09:45:07.185Z,1015.97
2022-09-09T09:50:14.453Z,1015.96
2022-09-09T09:55:21.726Z,1015.92
2022-09-09T10:00:29.031Z,1015.91
2022-09-09T10:05:36.492Z,1015.93
2022-09-09T10:10:47.860Z,1015.86
2022-09-09T10:15:50.800Z,1015.80
2022-09-09T10:20:58.008Z,1015.77
2022-09-09T10:26:05.228Z,1015.75
2022-09-09T10:31:12.579Z,1015.68
2022-09-09T10:36:19.797Z,1015.60
2022-09-09T10:41:27.063Z,1015.63
2022-09-09T10:46:34.425Z,1015.62
2022-09-09T10:51:42.432Z,1015.59
2022-09-09T10:56:48.771Z,1015.57
2022-09-09T11:01:56.116Z,1015.55
2022-09-09T11:07:03.333Z,1015.52
2022-09-09T11:12:10.711Z,1015.36
2022-09-09T11:17:18.581Z,1015.26
2022-09-09T11:22:25.728Z,1015.15
2022-09-09T11:27:32.950Z,1015.10
2022-09-09T11:32:40.167Z,1015.10
2022-09-09T11:37:47.301Z,1015.14
2022-09-09T11:42:54.575Z,1015.16
2022-09-09T11:48:01.774Z,1015.36
2022-09-09T11:53:08.940Z,1015.56
2022-09-09T11:58:16.195Z,1015.68
2022-09-09T12:03:23.429Z,1015.62
2022-09-09T12:08:30.687Z,1015.53
2022-09-09T12:13:37.859Z,1015.49
2022-09-09T12:18:45.186Z,1015.50
2022-09-09T12:23:52.326Z,1015.50
2022-09-09T12:28:59.525Z,1015.46
2022-09-09T12:34:06.756Z,1015.36
2022-09-09T12:39:13.943Z,1015.20
2022-09-09T12:44:21.174Z,1015.22
2022-09-09T12:49:28.393Z,1015.18
2022-09-09T12:54:35.721Z,1015.13
2022-09-09T12:59:42.944Z,1015.10
2022-09-09T13:04:50.139Z,1015.00
2022-09-09T13:09:57.297Z,1014.98
2022-09-09T13:15:04.492Z,1014.94
2022-09-09T13:20:11.715Z,1014.98
2022-09-09T13:25:18.873Z,1014.94
2022-09-09T13:30:26.091Z,1014.90
2022-09-09T13:35:33.257Z,1014.85
2022-09-09T13:40:40.428Z,1014.83
2022-09-09T13:45:47.747Z,1014.79
2022-09-09T13:50:54.899Z,1014.75
2022-09-09T13:56:02.062Z,1014.65
2022-09-09T14:01:09.289Z,1014.55
2022-09-09T14:06:16.466Z,1014.49
2022-09-09T14:11:23.621Z,1014.44
2022-09-09T14:16:30.825Z,1014.37
2022-09-09T14:21:38.119Z,1014.41
2022-09-09T14:26:45.289Z,1014.45
2022-09-09T14:31:52.548Z,1014.41
2022-09-09T14:36:59.849Z,1014.32
2022-09-09T14:42:07.029Z,1014.21
2022-09-09T14:47:14.276Z,1014.17
2022-09-09T14:52:21.550Z,1014.21
2022-09-09T14:57:28.779Z,1014.20
2022-09-09T15:02:36.040Z,1014.28
2022-09-09T15:07:43.231Z,1014.27
2022-09-09T15:12:50.473Z,1014.30
2022-09-09T15:17:57.771Z,1014.35
2022-09-09T15:23:04.977Z,1014.35
2022-09-09T15:28:12.121Z,1014.28
2022-09-09T15:33:19.324Z,1014.30
2022-09-09T15:38:26.620Z,1014.27
2022-09-09T15:43:33.847Z,1014.24
2022-09-09T15:48:41.047Z,1014.23
2022-09-09T15:53:48.258Z,1014.19
2022-09-09T15:58:55.413Z,1014.09
2022-09-09T16:04:02.664Z,1014.12
2022-09-09T16:09:09.937Z,1014.09
2022-09-09T16:14:17.182Z,1014.06
2022-09-09T16:19:24.357Z,1014.09
2022-09-09T16:24:31.578Z,1014.22
2022-09-09T16:29:38.730Z,1014.18
2022-09-09T16:34:45.913Z,1014.22
2022-09-09T16:39:53.171Z,1014.27
2022-09-09T16:45:00.278Z,1014.26
2022-09-09T16:50:07.471Z,1014.16
2022-09-09T16:55:14.675Z,1014.28
2022-09-09T17:00:21.841Z,1014.36
2022-09-09T17:05:29.025Z,1014.33
2022-09-09T17:10:36.235Z,1014.47
2022-09-09T17:15:43.493Z,1014.48
2022-09-09T17:20:50.724Z,1014.59
2022-09-09T17:25:58.001Z,1014.72
2022-09-09T17:31:05.232Z,1014.74
2022-09-09T17:36:12.434Z,1014.77
2022-09-09T17:41:19.653Z,1014.79
2022-09-09T17:46:26.877Z,1014.83
2022-09-09T17:51:34.139Z,1014.93
2022-09-09T17:56:41.402Z,1014.91
2022-09-09T18:01:48.561Z,1014.93
2022-09-09T18:06:55.745Z,1014.98
2022-09-09T18:12:02.959Z,1015.06
2022-09-09T18:17:10.115Z,1015.14
2022-09-09T18:22:17.379Z,1015.15
2022-09-09T18:27:24.674Z,1015.34
2022-09-09T18:32:31.876Z,1015.46
2022-09-09T18:37:39.062Z,1015.66
2022-09-09T18:42:46.511Z,1015.57
2022-09-09T18:47:54.011Z,1015.65
2022-09-09T18:53:01.723Z,1015.74
2022-09-09T18:58:09.470Z,1015.88
2022-09-09T19:03:17.055Z,1016.02
2022-09-09T19:08:24.664Z,1016.11
2022-09-09T19:13:32.176Z,1016.22
2022-09-09T19:18:39.686Z,1016.42
2022-09-09T19:23:47.198Z,1016.33
2022-09-09T19:28:54.540Z,1016.21
2022-09-09T19:34:01.780Z,1016.28
2022-09-09T19:39:09.052Z,1016.20
2022-09-09T19:44:16.332Z,1016.17
2022-09-09T19:49:23.471Z,1016.19
2022-09-09T19:54:30.680Z,1016.27
2022-09-09T19:59:37.881Z,1016.29
2022-09-09T20:04:45.052Z,1016.39
2022-09-09T20:09:52.281Z,1016.34
2022-09-09T20:14:59.544Z,1016.37
2022-09-09T20:20:06.671Z,1016.58
2022-09-09T20:25:13.864Z,1016.62
2022-09-09T20:30:21.071Z,1016.67
2022-09-09T20:35:28.275Z,1016.53
2022-09-09T20:40:35.518Z,1016.58
2022-09-09T20:45:42.715Z,1016.68
2022-09-09T20:50:49.924Z,1016.78
2022-09-09T20:55:57.069Z,1016.87
2022-09-09T21:01:04.321Z,1016.99
2022-09-09T21:06:11.446Z,1017.10
2022-09-09T21:11:18.636Z,1017.11
2022-09-09T21:16:25.842Z,1017.14
2022-09-09T21:21:33.000Z,1016.96
2022-09-09T21:26:40.179Z,1017.01
2022-09-09T21:31:47.447Z,1016.84
2022-09-09T21:36:54.563Z,1016.86
2022-09-09T21:42:01.754Z,1016.90
2022-09-09T21:47:08.970Z,1016.97
2022-09-09T21:52:16.397Z,1016.84
2022-09-09T21:57:25.105Z,1016.81
2022-09-09T22:02:30.988Z,1016.87
2022-09-09T22:07:38.016Z,1016.96
2022-09-09T22:12:45.270Z,1017.02
2022-09-09T22:17:52.487Z,1017.01
2022-09-09T22:22:59.628Z,1016.97
2022-09-09T22:28:06.811Z,1017.06
2022-09-09T22:33:14.013Z,1017.09
2022-09-09T22:38:21.171Z,1017.02
2022-09-09T22:43:28.389Z,1017.04
2022-09-09T22:48:35.619Z,1017.05
2022-09-09T22:53:42.823Z,1016.88
2022-09-09T22:58:50.022Z,1016.80
2022-09-09T23:03:57.271Z,1016.81
2022-09-09T23:09:04.434Z,1016.81
2022-09-09T23:14:11.639Z,1016.87
2022-09-09T23:19:18.889Z,1017.01
2022-09-09T23:24:26.046Z,1016.96
2022-09-09T23:29:33.361Z,1016.94
2022-09-09T23:34:40.663Z,1017.02
2022-09-09T23:39:47.982Z,1017.03
2022-09-09T23:44:55.079Z,1017.03
2022-09-09T23:50:02.311Z,1017.06
2022-09-09T23:55:09.460Z,1017.03
